North Georgetown, Ohio
Current Conditions -  °F | °C
As of 5:51 AM on Friday 28 Nov 2014 (Local Time) from KCAK Reporting Station
Scattered Clouds Scattered Clouds  
Wind Chill: 11°   Ceiling: Unl
Heat Index: 21°   Visibility: 10mi
Dew Point: 13°   Wind: 9mph
Humidity: 71%   Direction: 290°WNW
Pressure: 30.31"   Gusts: NA
Location:  40.85°N, 80.98°W
Report Text: KCAK 281051Z 29008KT 10SM SCT049 M06/M11 A3031 RMK AO2 SLP280 T10611106
Loading
Personal Weather Stations






























Interactive Weather Map New forecast layout! Learn more

10-Day Weather Forecast

Advertisements
Track Severe Weather on mobile